Database: COMPET-N - COOP - 3PL - 4PL - CNDOOM

WAD: Doom | Doom 2 | TNT | Plutonia | AV | HR | Scythe | MM | MM2 | Requiem | CE
Category: speed | nmare | max | nm100s | tyson | pacifist | fast | respawn | nomo | misc | built | all
Highscore: ALL | IWAD | PWAD | Country | Continent

< Previous map       Next map >
Remove: wad | map | category | player | allMAP29
MapPlayerTimeDateFilenameCommentsDL
MAP29: The Living EndLaurent Sebellin1:38.002008-05-02lv29-138.zip - 235
MAP29: The Living EndHi Jango1:43.002005-09-17lv29-143.zip - 106
MAP29: The Living EndVaclav Kunes1:46.002000-12-06lv29-146.zip - 86
MAP29: The Living EndHenning Skogsto1:48.002000-05-01lv29-148.zip - 79
MAP29: The Living EndVaclav Kunes1:50.002000-03-26lv29-150.zip - 92
MAP29: The Living EndHenning Skogsto1:51.001999-07-10lv29-151.zip - 51
MAP29: The Living EndAdam Hegyi1:53.001999-05-23lv29-153.zip - 61
MAP29: The Living EndAdam Hegyi2:12.001998-06-04lv29-212.zip - 66
MAP29: The Living EndThomas Pilger2:31.001998-02-08lv29-231.zip - 45
MAP29: The Living EndDaniel Lindgren2:42.001996-06-30lv29-242.zip - 57
MAP29: The Living EndDaniel Lindgren3:34.001996-04-10lv29-334.zip - 48
MAP29: The Living EndKai-Uwe Humpert4:10.001996-04-08lv29-410.zip - 60
MAP29: The Living EndDaniel Lindgren4:27.001996-02-28lv29-427.zip - 65
MAP29: The Living EndDrew DeVore1:57.002002-07-25nm29-157.zip - 154
MAP29: The Living EndHenning Skogsto2:08.001999-12-24nm29-208.zip - 51
MAP29: The Living EndVincent Catalaa2:12.001999-10-20nm29-212.zip - 47
MAP29: The Living EndMarijo Sedlić2:21.001999-10-17nm29-221.zip - 66
MAP29: The Living EndVincent Catalaa2:47.001999-10-16nm29-247.zip - 43
MAP29: The Living EndMarijo Sedlić2:54.001999-10-05nm29-254.zip - 46
MAP29: The Living EndThomas Pilger3:27.001998-07-17nm29-327.zip - 45
MAP29: The Living EndThomas Pilger4:51.001998-06-03nm29-451.zip - 42
MAP29: The Living EndAndreas Kren5:54.001997-04-13nm29-554.zip - 42
MAP29: The Living EndDrew DeVore4:05.002003-05-15lv29-405.zip - 192
MAP29: The Living EndRadek Pecka4:18.002002-06-28lv29-418.zip - 76
MAP29: The Living EndIan Sutton4:27.001999-11-04lv29-427.zip - 48
MAP29: The Living EndAnders Johnsen4:36.001998-07-27lv29-436.zip - 73
MAP29: The Living EndDaniel Lindgren4:46.001997-06-22lv29-446.zip - 66
MAP29: The Living EndDaniel Lindgren5:09.001996-08-27lv29-509.zip - 80
MAP29: The Living EndDaniel Lindgren5:30.001996-08-27lv29-530.zip - 75
MAP29: The Living EndYonatan Donner6:11.001996-08-18lv29-611.zip - 33
MAP29: The Living EndYonatan Donner6:32.001996-08-18lv29-632.zip - 36
MAP29: The Living EndYonatan Donner6:39.001996-08-20lv29-639.zip - 40
MAP29: The Living EndDaniel Lindgren6:51.001995-11-25lv29-651.zip - 46
MAP29: The Living EndYonatan Donner6:54.001996-08-19lv29-654.zip - 34
MAP29: The Living EndEric Mullins6:55.001995-04-06lv29-655.zip - 48
MAP29: The Living EndJim Leonard18:54.002003-02-01ty291854.zip - 172
MAP29: The Living EndJim Leonard24:26.002002-01-29ty292426.zip - 134
MAP29: The Living EndDaniel Lindgren47:01.001997-06-21ty294701.zip - 77
MAP29: The Living EndArtem Safronov2:14.002007-09-30pa29-214.zip - 217
MAP29: The Living EndDrew DeVore2:21.002003-04-30pa29-221.zip - 70
MAP29: The Living EndVaclav Kunes2:56.002001-12-30pa29-256.zip - 269
MAP29: The Living EndRadek Pecka5:25.002002-09-02fa29-525.zip - 153
MAP29: The Living EndChris Ratcliff5:42.002000-09-28fa29-542.zip - 67
MAP29: The Living EndIan Sutton6:41.001999-12-13fa29-641.zip - 69
MAP29: The Living EndFrank Siebers7:17.001999-07-14fa29-717.zip - 65
MAP29: The Living EndPeo Sjoblom7:26.001997-04-09fa29s726.zip - 56
MAP29: The Living EndPeo Sjoblom8:31.001997-08-11fa29-831.zip - 33
MAP29: The Living EndYonatan Donner9:17.001997-02-28fa29-917.zip - 29
MAP29: The Living EndPeo Sjoblom21:19.001996-08-11f29-2119.zip - 50
MAP29: The Living EndIan Sutton2:56.001999-10-24re29-256.zip - 168
MAP29: The Living EndZvonimir Bužanić3:50.001999-10-17re29-350.zip - 101
MAP29: The Living EndZvonimir Bužanić4:14.001999-09-25re29-414.zip - 73
MAP29: The Living EndSteffen Udluft6:45.001997-10-07re29-645.zip - 55
MAP29: The Living EndLooper 1:23.512012-01-19d2912351.zip - 196
MAP29: The Living EndAdam Hegyi1:28.622000-05-08d2912862.zip - 77
Remove: wad | map | category | player | all